Time;durP1;ratioP1;P1;durP2;ratioP2;P2;SDS_P1;SDS_P2;PMS_P1;PMS_P2;Temp;Humidity;BMP_temperature;BMP_pressure;BME280_temperature;BME280_humidity;BME280_pressure;Samples;Min_cycle;Max_cycle;Signal;HPM_P1;HPM_P2
2023/10/03 00:00:24;;;;;;;24.07;7.07;;;;;;;15.03;100.00;96534.56;5075837;28;20230;-70
2023/10/03 00:02:55;;;;;;;18.00;6.23;;;;;;;15.17;100.00;96534.41;5073930;28;20230;-70
2023/10/03 00:05:22;;;;;;;21.00;6.93;;;;;;;14.99;100.00;96534.13;5075603;28;20199;-70
2023/10/03 00:07:50;;;;;;;24.33;7.05;;;;;;;15.05;100.00;96528.03;5074935;28;20200;-70
2023/10/03 00:10:17;;;;;;;21.77;6.07;;;;;;;14.95;100.00;96530.25;5075261;28;20279;-70
2023/10/03 00:12:44;;;;;;;18.77;6.03;;;;;;;14.96;100.00;96528.41;5074842;28;20231;-70
2023/10/03 00:15:12;;;;;;;20.83;7.23;;;;;;;15.02;100.00;96523.16;5075610;28;20205;-70
2023/10/03 00:17:39;;;;;;;31.97;7.97;;;;;;;14.94;100.00;96512.69;5073975;28;20287;-70
2023/10/03 00:20:11;;;;;;;22.42;6.70;;;;;;;15.20;100.00;96512.81;5075697;28;20328;-69
2023/10/03 00:22:38;;;;;;;18.50;6.20;;;;;;;14.84;100.00;96519.34;5074882;28;20227;-69
2023/10/03 00:25:07;;;;;;;22.80;6.18;;;;;;;14.78;100.00;96505.06;5075094;28;20204;-70
2023/10/03 00:27:35;;;;;;;17.67;6.23;;;;;;;14.74;100.00;96509.13;5074355;28;20235;-70
2023/10/03 00:30:02;;;;;;;20.40;5.82;;;;;;;14.69;100.00;96508.88;5075273;28;20195;-70
2023/10/03 00:32:29;;;;;;;23.03;7.10;;;;;;;14.67;100.00;96500.28;5075182;28;20338;-70
2023/10/03 00:34:56;;;;;;;18.57;7.03;;;;;;;14.79;100.00;96500.56;5074898;28;20210;-70
2023/10/03 00:37:25;;;;;;;24.60;7.17;;;;;;;14.99;100.00;96502.28;5075660;28;20200;-70
2023/10/03 00:39:51;;;;;;;25.53;6.63;;;;;;;14.90;100.00;96502.66;5073992;28;20802;-70
2023/10/03 00:42:19;;;;;;;18.00;5.22;;;;;;;15.03;100.00;96503.56;5075279;28;20216;-70
2023/10/03 00:44:45;;;;;;;23.30;6.90;;;;;;;15.12;100.00;96499.72;5075060;28;20215;-70
2023/10/03 00:47:12;;;;;;;22.88;7.57;;;;;;;15.23;100.00;96493.84;5075304;28;20201;-69
2023/10/03 00:49:39;;;;;;;24.27;7.00;;;;;;;15.32;100.00;96487.34;5074388;28;20207;-70
2023/10/03 00:52:06;;;;;;;19.93;6.73;;;;;;;15.39;100.00;96489.00;5074608;28;20223;-70
2023/10/03 00:54:34;;;;;;;24.13;6.40;;;;;;;15.58;100.00;96485.56;5075410;28;20227;-70
2023/10/03 00:57:00;;;;;;;27.33;6.88;;;;;;;15.46;100.00;96484.50;5074447;28;20196;-69
2023/10/03 00:59:28;;;;;;;21.75;6.55;;;;;;;15.51;100.00;96491.88;5076760;28;20215;-70
2023/10/03 01:02:02;;;;;;;21.52;5.38;;;;;;;15.57;100.00;96488.44;5079238;28;20361;-70
2023/10/03 01:04:31;;;;;;;21.23;6.38;;;;;;;15.79;100.00;96481.94;5078772;28;20216;-70
2023/10/03 01:06:58;;;;;;;23.33;7.30;;;;;;;15.59;100.00;96483.72;5077208;28;20256;-70
2023/10/03 01:09:30;;;;;;;16.50;6.03;;;;;;;15.52;100.00;96485.56;5079584;28;20232;-71
2023/10/03 01:11:58;;;;;;;21.83;7.20;;;;;;;15.59;100.00;96478.41;5078186;28;20240;-70
2023/10/03 01:14:26;;;;;;;20.75;7.07;;;;;;;15.44;100.00;96483.06;5079438;28;20207;-70
2023/10/03 01:16:53;;;;;;;24.73;6.85;;;;;;;15.43;100.00;96478.81;5079467;28;20210;-69
2023/10/03 01:19:21;;;;;;;20.70;5.83;;;;;;;15.38;100.00;96482.03;5078925;28;20223;-70
2023/10/03 01:21:49;;;;;;;28.20;8.45;;;;;;;15.44;100.00;96473.28;5076856;28;20235;-69
2023/10/03 01:24:22;;;;;;;25.23;7.15;;;;;;;15.50;100.00;96479.63;5079087;28;20551;-69
2023/10/03 01:26:52;;;;;;;19.48;6.03;;;;;;;15.32;100.00;96469.59;5078315;28;20218;-69
2023/10/03 01:29:18;;;;;;;25.30;6.47;;;;;;;15.29;100.00;96471.81;5077956;28;20195;-70
2023/10/03 01:31:47;;;;;;;19.50;6.25;;;;;;;15.15;100.00;96475.41;5078510;28;20347;-69
2023/10/03 01:34:15;;;;;;;21.52;5.80;;;;;;;15.19;100.00;96476.66;5078065;28;21618;-69
2023/10/03 01:36:41;;;;;;;20.60;5.88;;;;;;;15.47;100.00;96469.41;5077977;28;20210;-69
2023/10/03 01:39:11;;;;;;;17.45;6.13;;;;;;;15.29;100.00;96462.00;5077261;28;20261;-69
2023/10/03 01:41:40;;;;;;;19.58;6.85;;;;;;;15.38;100.00;96458.16;5078569;28;20309;-70
2023/10/03 01:44:07;;;;;;;23.13;6.80;;;;;;;15.24;100.00;96452.22;5077333;28;20669;-69
2023/10/03 01:46:34;;;;;;;21.67;6.47;;;;;;;15.38;100.00;96460.81;5077373;28;20688;-69
2023/10/03 01:49:01;;;;;;;23.85;5.97;;;;;;;15.39;100.00;96454.47;5077973;28;20208;-69
2023/10/03 01:51:27;;;;;;;15.32;5.40;;;;;;;15.19;100.00;96444.78;5077829;28;20723;-69
2023/10/03 01:53:56;;;;;;;20.33;6.00;;;;;;;15.22;100.00;96446.25;5078404;28;20692;-69
2023/10/03 01:56:25;;;;;;;15.82;5.63;;;;;;;15.10;100.00;96439.88;5078372;28;20389;-68
2023/10/03 01:58:54;;;;;;;24.30;6.75;;;;;;;15.20;100.00;96433.16;5078333;28;21024;-69
2023/10/03 02:01:23;;;;;;;18.25;5.00;;;;;;;15.04;100.00;96430.84;5076664;28;20223;-69
2023/10/03 02:03:50;;;;;;;15.40;5.50;;;;;;;15.04;100.00;96435.34;5079387;28;20230;-72
2023/10/03 02:06:17;;;;;;;31.02;6.38;;;;;;;15.01;100.00;96430.47;5076898;28;20212;-69
2023/10/03 02:08:43;;;;;;;21.55;6.22;;;;;;;14.98;100.00;96430.84;5078398;28;20203;-69
2023/10/03 02:11:11;;;;;;;23.35;5.95;;;;;;;15.01;100.00;96433.91;5076205;28;20229;-69
2023/10/03 02:13:38;;;;;;;19.00;6.20;;;;;;;15.04;100.00;96424.75;5077806;28;20265;-69
2023/10/03 02:16:07;;;;;;;23.30;6.07;;;;;;;15.11;100.00;96426.41;5076653;28;20227;-69
2023/10/03 02:18:35;;;;;;;25.10;7.03;;;;;;;14.90;100.00;96426.50;5077815;28;20207;-69
2023/10/03 02:21:03;;;;;;;19.17;7.13;;;;;;;15.01;100.00;96417.19;5077283;28;20235;-69
2023/10/03 02:23:32;;;;;;;16.77;5.07;;;;;;;15.02;100.00;96421.44;5077319;28;21128;-69
2023/10/03 02:26:08;;;;;;;24.23;6.18;;;;;;;15.25;100.00;96425.44;5077232;28;20573;-69
2023/10/03 02:28:36;;;;;;;18.33;6.60;;;;;;;14.93;100.00;96420.84;5077763;28;20958;-69
2023/10/03 02:31:07;;;;;;;25.73;6.47;;;;;;;14.85;100.00;96423.63;5077501;28;20231;-69
2023/10/03 02:33:40;;;;;;;22.08;6.88;;;;;;;15.17;100.00;96425.59;5076846;28;20196;-69
2023/10/03 02:36:08;;;;;;;21.55;6.32;;;;;;;14.87;100.00;96415.50;5075321;28;20204;-68
2023/10/03 02:38:37;;;;;;;22.27;5.70;;;;;;;14.81;100.00;96422.41;5077359;28;20338;-69
2023/10/03 02:41:06;;;;;;;22.13;5.97;;;;;;;14.75;100.00;96417.91;5076863;28;20559;-69
2023/10/03 02:43:34;;;;;;;19.45;6.22;;;;;;;14.70;100.00;96411.53;5077188;28;20207;-69
2023/10/03 02:46:00;;;;;;;23.52;6.70;;;;;;;14.40;100.00;96412.84;5076607;28;20200;-69
2023/10/03 02:48:28;;;;;;;22.05;6.70;;;;;;;14.43;100.00;96406.31;5076523;28;20200;-69
2023/10/03 02:50:56;;;;;;;22.10;6.00;;;;;;;14.66;100.00;96408.50;5076455;28;20228;-68
2023/10/03 02:53:22;;;;;;;22.77;5.88;;;;;;;14.53;100.00;96409.44;5077281;28;20207;-68
2023/10/03 02:55:50;;;;;;;17.38;5.85;;;;;;;14.77;100.00;96405.25;5076421;28;20599;-69
2023/10/03 02:58:19;;;;;;;18.43;5.17;;;;;;;14.99;100.00;96412.06;5077226;28;20207;-68
2023/10/03 03:00:47;;;;;;;27.08;5.95;;;;;;;14.91;100.00;96411.44;5077547;28;20716;-69
2023/10/03 03:03:14;;;;;;;19.98;5.38;;;;;;;14.88;100.00;96412.66;5075848;28;20204;-69
2023/10/03 03:05:43;;;;;;;17.47;4.60;;;;;;;14.78;100.00;96412.19;5076981;28;20195;-69
2023/10/03 03:08:22;;;;;;;22.57;6.37;;;;;;;15.04;100.00;96408.81;5077637;28;20283;-69
2023/10/03 03:10:54;;;;;;;23.33;6.00;;;;;;;15.07;100.00;96414.56;5076729;28;20238;-69
2023/10/03 03:13:22;;;;;;;18.87;5.17;;;;;;;14.99;100.00;96408.59;5075129;28;20200;-68
2023/10/03 03:15:53;;;;;;;22.53;5.73;;;;;;;15.01;100.00;96403.91;5077711;28;20200;-68
2023/10/03 03:18:21;;;;;;;23.07;5.73;;;;;;;15.10;100.00;96400.88;5075133;28;20315;-69
2023/10/03 03:20:54;;;;;;;22.00;5.43;;;;;;;15.13;100.00;96397.00;5076757;28;20220;-69
2023/10/03 03:23:27;;;;;;;14.83;4.73;;;;;;;15.19;100.00;96397.00;5075215;28;20211;-69
2023/10/03 03:26:02;;;;;;;21.10;4.60;;;;;;;15.21;100.00;96402.16;5076742;28;20830;-69
2023/10/03 03:28:29;;;;;;;17.40;5.37;;;;;;;15.19;100.00;96397.00;5075554;28;20199;-69
2023/10/03 03:30:57;;;;;;;22.40;6.53;;;;;;;15.10;100.00;96392.91;5077085;28;20223;-69
2023/10/03 03:33:27;;;;;;;21.80;5.45;;;;;;;15.26;100.00;96397.84;5075947;28;20207;-69
2023/10/03 03:35:55;;;;;;;17.40;5.03;;;;;;;15.16;100.00;96408.03;5076349;28;20215;-69
2023/10/03 03:38:22;;;;;;;19.50;5.18;;;;;;;15.12;100.00;96401.50;5075535;28;20210;-69
2023/10/03 03:40:56;;;;;;;20.90;5.28;;;;;;;15.31;100.00;96398.06;5076429;28;20224;-69
2023/10/03 03:43:24;;;;;;;20.60;5.47;;;;;;;15.22;100.00;96396.63;5076054;28;20208;-68
2023/10/03 03:45:51;;;;;;;18.92;4.45;;;;;;;15.06;100.00;96396.16;5075761;28;21179;-69
2023/10/03 03:48:21;;;;;;;19.13;4.32;;;;;;;14.93;100.00;96402.25;5075619;28;20200;-69
2023/10/03 03:50:50;;;;;;;22.30;5.10;;;;;;;15.06;100.00;96391.69;5074807;28;20200;-69
2023/10/03 03:53:18;;;;;;;17.70;5.40;;;;;;;14.92;100.00;96390.00;5076213;28;20211;-69
2023/10/03 03:55:45;;;;;;;14.73;4.75;;;;;;;14.91;100.00;96392.84;5075739;28;20208;-68
2023/10/03 03:58:16;;;;;;;19.65;5.07;;;;;;;14.93;100.00;96391.66;5074556;28;20204;-69
2023/10/03 04:00:47;;;;;;;24.20;6.75;;;;;;;14.72;100.00;96389.09;5075535;28;20224;-68
2023/10/03 04:03:14;;;;;;;22.70;5.90;;;;;;;14.65;100.00;96390.94;5075573;28;20211;-69
2023/10/03 04:05:42;;;;;;;16.23;5.33;;;;;;;14.61;100.00;96390.69;5074942;28;20207;-69
2023/10/03 04:08:09;;;;;;;18.50;5.80;;;;;;;14.83;100.00;96383.25;5075875;28;21375;-69
2023/10/03 04:10:37;;;;;;;20.70;5.17;;;;;;;14.78;100.00;96377.72;5076017;28;20257;-68
2023/10/03 04:13:09;;;;;;;16.25;5.30;;;;;;;14.78;100.00;96388.31;5074547;28;20682;-69
2023/10/03 04:15:40;;;;;;;18.07;4.70;;;;;;;15.03;100.00;96381.47;5076217;28;20195;-69
2023/10/03 04:18:09;;;;;;;18.20;5.05;;;;;;;14.79;100.00;96389.97;5075029;28;20232;-69
2023/10/03 04:20:39;;;;;;;17.47;5.47;;;;;;;14.89;100.00;96398.38;5075675;28;20227;-69
2023/10/03 04:23:07;;;;;;;21.53;6.57;;;;;;;15.14;100.00;96398.63;5074830;28;20306;-69
2023/10/03 04:25:34;;;;;;;17.50;4.73;;;;;;;14.96;100.00;96396.53;5075476;28;20207;-69
2023/10/03 04:28:02;;;;;;;14.77;5.53;;;;;;;15.08;100.00;96389.63;5074976;28;20200;-69
2023/10/03 04:30:30;;;;;;;11.55;4.53;;;;;;;15.04;100.00;96387.59;5075119;28;20192;-69
2023/10/03 04:32:58;;;;;;;13.32;3.97;;;;;;;15.16;100.00;96389.47;5075686;28;20235;-69
2023/10/03 04:35:25;;;;;;;23.17;5.50;;;;;;;15.03;100.00;96383.28;5073333;28;20254;-69
2023/10/03 04:37:54;;;;;;;16.53;5.10;;;;;;;14.92;100.00;96374.09;5075169;28;20296;-69
2023/10/03 04:40:23;;;;;;;17.10;5.13;;;;;;;14.90;100.00;96376.09;5074777;28;20220;-69
2023/10/03 04:42:50;;;;;;;19.77;4.95;;;;;;;14.82;100.00;96372.84;5075588;28;20594;-69
2023/10/03 04:45:19;;;;;;;12.43;3.77;;;;;;;14.72;100.00;96367.88;5073997;28;20294;-71
2023/10/03 04:47:47;;;;;;;19.80;5.93;;;;;;;15.01;100.00;96372.06;5075423;28;21083;-69
2023/10/03 04:50:19;;;;;;;19.80;5.35;;;;;;;15.23;100.00;96368.25;5074563;28;20250;-69
2023/10/03 04:52:49;;;;;;;14.40;4.77;;;;;;;15.09;100.00;96380.66;5074871;28;20900;-69
2023/10/03 04:55:17;;;;;;;15.27;4.22;;;;;;;15.01;100.00;96372.06;5074516;28;20203;-69
2023/10/03 04:57:45;;;;;;;23.40;5.37;;;;;;;15.04;100.00;96372.47;5074299;28;20219;-69
2023/10/03 05:00:15;;;;;;;13.30;4.43;;;;;;;15.17;100.00;96383.09;5074453;28;21009;-69
2023/10/03 05:02:43;;;;;;;17.57;4.70;;;;;;;15.33;100.00;96388.88;5074391;28;20586;-69
2023/10/03 05:05:10;;;;;;;13.00;4.60;;;;;;;15.28;100.00;96387.88;5075097;28;20200;-69
2023/10/03 05:07:38;;;;;;;11.60;3.97;;;;;;;15.68;100.00;96389.53;5073480;28;20209;-69
2023/10/03 05:10:06;;;;;;;18.87;4.80;;;;;;;15.59;100.00;96388.94;5075376;28;20207;-69
2023/10/03 05:12:33;;;;;;;16.93;5.40;;;;;;;15.56;100.00;96393.81;5073703;28;20216;-69
2023/10/03 05:14:59;;;;;;;10.88;4.43;;;;;;;15.60;100.00;96395.06;5075300;28;20225;-69
2023/10/03 05:17:27;;;;;;;17.08;5.28;;;;;;;15.63;100.00;96394.63;5074478;28;20214;-69
2023/10/03 05:19:53;;;;;;;15.80;5.03;;;;;;;15.62;100.00;96393.81;5075268;28;20204;-69
2023/10/03 05:22:20;;;;;;;12.93;3.87;;;;;;;15.61;100.00;96397.50;5073990;28;20231;-69
2023/10/03 05:24:49;;;;;;;14.38;4.13;;;;;;;15.70;100.00;96390.16;5074529;28;20204;-69
2023/10/03 05:27:16;;;;;;;15.80;4.55;;;;;;;15.43;100.00;96391.97;5076053;28;20204;-69
2023/10/03 05:29:43;;;;;;;14.40;5.18;;;;;;;15.45;100.00;96395.25;5073672;28;20212;-70
2023/10/03 05:32:09;;;;;;;15.43;4.43;;;;;;;15.28;100.00;96395.84;5074662;28;20247;-70
2023/10/03 05:34:37;;;;;;;15.52;4.38;;;;;;;15.48;100.00;96391.38;5074380;28;20199;-70
2023/10/03 05:37:03;;;;;;;18.20;5.22;;;;;;;15.41;100.00;96393.19;5075782;28;20290;-69
2023/10/03 05:39:31;;;;;;;11.07;4.28;;;;;;;15.80;100.00;96395.88;5074417;28;20208;-69
2023/10/03 05:42:00;;;;;;;17.83;4.90;;;;;;;15.95;100.00;96394.66;5075027;28;20238;-69
2023/10/03 05:44:27;;;;;;;17.33;4.80;;;;;;;15.96;100.00;96389.13;5074440;28;20203;-69
2023/10/03 05:46:55;;;;;;;13.02;4.25;;;;;;;16.11;100.00;96395.00;5076864;28;20980;-69
2023/10/03 05:49:23;;;;;;;13.93;4.60;;;;;;;16.30;100.00;96399.50;5077989;28;20208;-69
2023/10/03 05:51:51;;;;;;;16.88;4.57;;;;;;;16.29;100.00;96402.38;5078251;28;20334;-69
2023/10/03 05:54:18;;;;;;;16.80;4.95;;;;;;;16.48;100.00;96401.53;5077725;28;20208;-69
2023/10/03 05:56:45;;;;;;;13.32;4.97;;;;;;;16.39;100.00;96398.25;5076804;28;20207;-69
2023/10/03 05:59:13;;;;;;;18.48;5.28;;;;;;;16.47;100.00;96398.06;5077683;28;20203;-69
2023/10/03 06:01:40;;;;;;;14.48;4.85;;;;;;;16.33;100.00;96398.28;5076486;28;20232;-69
2023/10/03 06:04:08;;;;;;;15.23;4.57;;;;;;;16.40;100.00;96394.59;5078074;28;20208;-69
2023/10/03 06:06:34;;;;;;;13.70;4.10;;;;;;;16.58;100.00;96402.72;5077231;28;20482;-69
2023/10/03 06:09:01;;;;;;;17.80;4.82;;;;;;;16.50;100.00;96397.63;5076896;28;20977;-69
2023/10/03 06:11:29;;;;;;;10.82;4.32;;;;;;;16.53;100.00;96407.84;5074990;28;20228;-69
2023/10/03 06:13:57;;;;;;;11.68;4.35;;;;;;;16.61;100.00;96404.94;5076457;28;20210;-69
2023/10/03 06:16:25;;;;;;;14.82;4.93;;;;;;;16.73;100.00;96405.94;5076250;28;20200;-69
2023/10/03 06:18:51;;;;;;;15.43;4.55;;;;;;;16.61;100.00;96408.44;5077241;28;20204;-69
2023/10/03 06:21:18;;;;;;;12.40;4.60;;;;;;;16.53;100.00;96405.19;5075760;28;20231;-69
2023/10/03 06:23:46;;;;;;;15.65;4.72;;;;;;;16.40;100.00;96405.22;5077894;28;20314;-69
2023/10/03 06:26:17;;;;;;;18.48;5.20;;;;;;;16.76;100.00;96403.69;5075791;28;20204;-69
2023/10/03 06:28:44;;;;;;;16.60;4.15;;;;;;;16.74;100.00;96410.25;5078081;28;20587;-69
2023/10/03 06:31:11;;;;;;;11.18;3.92;;;;;;;16.84;100.00;96413.25;5076719;28;20216;-69
2023/10/03 06:33:42;;;;;;;17.02;4.53;;;;;;;17.19;100.00;96410.81;5076736;28;20196;-69
2023/10/03 06:36:08;;;;;;;17.35;4.82;;;;;;;17.08;100.00;96410.69;5077046;28;20344;-69
2023/10/03 06:38:36;;;;;;;12.32;3.92;;;;;;;17.27;100.00;96421.28;5076955;28;21100;-70
2023/10/03 06:41:03;;;;;;;14.98;4.45;;;;;;;17.44;100.00;96410.94;5077121;28;20598;-69
2023/10/03 06:43:30;;;;;;;13.02;4.15;;;;;;;17.54;100.00;96422.75;5075996;28;20215;-70
2023/10/03 06:45:57;;;;;;;13.73;4.90;;;;;;;17.44;100.00;96417.06;5076605;28;20230;-69
2023/10/03 06:48:24;;;;;;;17.30;4.93;;;;;;;17.64;100.00;96419.59;5074296;28;20285;-69
2023/10/03 06:50:52;;;;;;;19.10;4.60;;;;;;;17.99;100.00;96422.41;5076355;28;20247;-69
2023/10/03 06:53:19;;;;;;;12.05;4.63;;;;;;;17.90;100.00;96426.38;5076063;28;20206;-69
2023/10/03 06:55:45;;;;;;;13.15;4.50;;;;;;;17.94;100.00;96426.75;5076145;28;20208;-69
2023/10/03 06:58:12;;;;;;;18.77;5.57;;;;;;;18.05;100.00;96436.69;5076491;28;20200;-69
2023/10/03 07:00:38;;;;;;;18.20;4.80;;;;;;;18.12;100.00;96437.47;5075710;28;20203;-69
2023/10/03 07:03:05;;;;;;;17.13;4.32;;;;;;;18.13;100.00;96441.78;5076775;28;20434;-69
2023/10/03 07:05:33;;;;;;;12.60;4.20;;;;;;;18.31;100.00;96447.19;5076068;28;20696;-70
2023/10/03 07:08:02;;;;;;;13.85;4.32;;;;;;;18.54;100.00;96449.00;5076728;28;20200;-69
2023/10/03 07:10:28;;;;;;;15.60;4.82;;;;;;;18.37;100.00;96444.47;5074525;28;20277;-69
2023/10/03 07:12:55;;;;;;;14.70;5.07;;;;;;;18.52;100.00;96450.25;5076035;28;20274;-69
2023/10/03 07:15:22;;;;;;;11.52;3.90;;;;;;;18.42;100.00;96456.09;5076223;28;20214;-69
2023/10/03 07:17:48;;;;;;;16.23;5.55;;;;;;;18.67;100.00;96450.72;5075258;28;20223;-69
2023/10/03 07:20:15;;;;;;;10.73;3.55;;;;;;;18.88;100.00;96453.78;5076261;28;20211;-69
2023/10/03 07:22:42;;;;;;;14.05;4.80;;;;;;;18.93;100.00;96453.94;5075331;28;20227;-70
2023/10/03 07:25:11;;;;;;;11.68;4.95;;;;;;;19.16;100.00;96448.75;5076572;28;20569;-70
2023/10/03 07:27:41;;;;;;;15.02;3.90;;;;;;;18.97;100.00;96455.09;5075534;28;20239;-70
2023/10/03 07:30:08;;;;;;;13.70;4.30;;;;;;;19.18;100.00;96452.00;5077623;28;20207;-70
2023/10/03 07:32:35;;;;;;;11.15;4.50;;;;;;;19.29;100.00;96448.59;5074675;28;20923;-70
2023/10/03 07:35:02;;;;;;;12.82;4.63;;;;;;;19.40;100.00;96455.81;5076181;28;20783;-70
2023/10/03 07:37:29;;;;;;;11.85;4.45;;;;;;;19.68;100.00;96448.84;5074875;28;20662;-70
2023/10/03 07:39:57;;;;;;;14.45;4.47;;;;;;;19.59;100.00;96451.03;5075830;28;20689;-70
2023/10/03 07:42:24;;;;;;;12.15;4.18;;;;;;;20.00;100.00;96455.59;5075187;28;20697;-70
2023/10/03 07:44:52;;;;;;;11.73;3.88;;;;;;;19.79;100.00;96456.09;5075050;28;20294;-70
2023/10/03 07:47:20;;;;;;;9.63;3.95;;;;;;;20.10;100.00;96454.00;5074092;28;20286;-70
2023/10/03 07:49:48;;;;;;;15.48;4.15;;;;;;;19.92;100.00;96459.41;5075710;28;20230;-70
2023/10/03 07:52:17;;;;;;;14.43;3.45;;;;;;;20.10;100.00;96459.34;5074494;28;20224;-70
2023/10/03 07:54:46;;;;;;;12.80;3.53;;;;;;;20.02;100.00;96465.03;5074048;28;20261;-70
2023/10/03 07:57:13;;;;;;;12.00;3.78;;;;;;;20.29;100.00;96459.00;5075511;28;20654;-70
2023/10/03 07:59:42;;;;;;;9.93;2.95;;;;;;;20.34;100.00;96460.97;5070304;28;20688;-70
2023/10/03 08:02:10;;;;;;;9.43;3.58;;;;;;;20.45;100.00;96454.84;5074207;28;20297;-70
2023/10/03 08:04:40;;;;;;;10.20;3.72;;;;;;;20.44;100.00;96458.56;5073468;28;20242;-70
2023/10/03 08:07:07;;;;;;;13.88;4.13;;;;;;;20.21;100.00;96462.03;5073704;28;20286;-70
2023/10/03 08:09:33;;;;;;;10.57;3.70;;;;;;;20.31;100.00;96456.09;5073571;28;21292;-70
2023/10/03 08:12:01;;;;;;;9.40;3.47;;;;;;;20.39;100.00;96458.44;5074371;28;20562;-70
2023/10/03 08:14:31;;;;;;;10.02;2.95;;;;;;;20.36;100.00;96461.56;5073872;28;20249;-70
2023/10/03 08:16:59;;;;;;;11.98;3.33;;;;;;;20.72;100.00;96464.03;5073404;28;20208;-70
2023/10/03 08:19:26;;;;;;;6.30;2.58;;;;;;;20.56;100.00;96465.53;5073710;28;20212;-70
2023/10/03 08:21:53;;;;;;;8.68;3.70;;;;;;;20.93;100.00;96466.94;5073667;28;20232;-70
2023/10/03 08:24:24;;;;;;;9.32;3.08;;;;;;;21.01;100.00;96461.22;5074932;28;20207;-70
2023/10/03 08:26:52;;;;;;;9.90;3.05;;;;;;;21.05;100.00;96465.06;5073872;28;20208;-70
2023/10/03 08:29:22;;;;;;;12.65;3.60;;;;;;;21.31;100.00;96460.00;5073075;28;20208;-70
2023/10/03 08:31:49;;;;;;;12.93;3.85;;;;;;;21.38;100.00;96467.91;5074281;28;20281;-70
2023/10/03 08:34:19;;;;;;;9.38;3.47;;;;;;;21.16;100.00;96458.88;5074033;28;20734;-70
2023/10/03 08:36:46;;;;;;;10.50;3.22;;;;;;;21.09;100.00;96460.84;5073664;28;20215;-70
2023/10/03 08:39:13;;;;;;;10.50;3.55;;;;;;;21.28;100.00;96460.44;5073271;28;20197;-70
2023/10/03 08:41:46;;;;;;;7.57;3.03;;;;;;;21.52;100.00;96456.69;5072663;28;20231;-70
2023/10/03 08:44:13;;;;;;;11.70;3.50;;;;;;;21.53;100.00;96452.94;5073844;28;20751;-70
2023/10/03 08:46:45;;;;;;;10.73;3.25;;;;;;;21.70;100.00;96454.63;5073594;28;20208;-70
2023/10/03 08:49:17;;;;;;;6.38;2.83;;;;;;;21.88;100.00;96453.59;5073392;28;20290;-70
2023/10/03 08:51:46;;;;;;;5.72;2.78;;;;;;;21.76;100.00;96453.66;5072126;28;20219;-70
2023/10/03 08:54:13;;;;;;;10.40;3.42;;;;;;;21.97;100.00;96450.28;5074433;28;21095;-70
2023/10/03 08:56:41;;;;;;;5.55;2.15;;;;;;;21.99;100.00;96453.53;5073634;28;20200;-70
2023/10/03 08:59:09;;;;;;;10.70;2.75;;;;;;;22.07;100.00;96456.66;5075160;28;20290;-70
2023/10/03 09:01:38;;;;;;;8.02;3.17;;;;;;;22.42;100.00;96457.25;5074390;28;20666;-70
2023/10/03 09:04:15;;;;;;;9.00;3.03;;;;;;;22.32;100.00;96457.09;5075047;28;20231;-70
2023/10/03 09:06:43;;;;;;;11.63;3.08;;;;;;;22.30;100.00;96458.38;5073026;28;20548;-70
2023/10/03 09:09:14;;;;;;;10.85;3.15;;;;;;;22.34;100.00;96457.66;5073418;28;20203;-70
2023/10/03 09:11:43;;;;;;;9.50;4.15;;;;;;;22.53;100.00;96456.38;5073608;28;20236;-70
2023/10/03 09:14:12;;;;;;;8.40;3.03;;;;;;;22.65;100.00;96462.44;5075173;28;20204;-70
2023/10/03 09:16:39;;;;;;;11.98;3.25;;;;;;;22.88;100.00;96454.97;5072884;28;20263;-71
2023/10/03 09:19:09;;;;;;;6.72;2.42;;;;;;;22.75;100.00;96457.22;5075282;28;21089;-70
2023/10/03 09:21:36;;;;;;;8.35;2.58;;;;;;;22.94;100.00;96454.00;5076524;28;21101;-70
2023/10/03 09:24:14;;;;;;;5.05;1.98;;;;;;;23.27;100.00;96458.50;5079905;28;20200;-70
2023/10/03 09:26:46;;;;;;;7.90;2.67;;;;;;;23.30;100.00;96458.00;5076171;28;20200;-71
2023/10/03 09:29:18;;;;;;;8.07;2.78;;;;;;;23.46;99.89;96453.38;5077311;28;20203;-72
2023/10/03 09:31:47;;;;;;;18.17;4.10;;;;;;;23.77;99.88;96462.63;5076609;28;20338;-70
2023/10/03 09:34:14;;;;;;;7.00;2.45;;;;;;;23.71;96.73;96463.63;5078734;28;21325;-71
2023/10/03 09:36:41;;;;;;;5.95;2.60;;;;;;;23.69;97.15;96458.50;5077889;28;20298;-70
2023/10/03 09:39:20;;;;;;;10.32;2.75;;;;;;;23.87;94.32;96452.78;5077879;28;20293;-72
2023/10/03 09:41:52;;;;;;;6.05;2.03;;;;;;;24.05;93.70;96452.41;5079085;28;20225;-71
2023/10/03 09:44:30;;;;;;;6.90;2.95;;;;;;;24.25;94.42;96450.72;5077988;28;20199;-70
2023/10/03 09:47:06;;;;;;;2.78;1.48;;;;;;;24.24;89.75;96440.19;5077462;28;20207;-70
2023/10/03 09:49:38;;;;;;;6.38;2.40;;;;;;;24.29;93.17;96442.94;5078233;28;20200;-72
2023/10/03 09:52:09;;;;;;;7.85;2.40;;;;;;;24.61;90.53;96433.78;5077806;28;20215;-70
2023/10/03 09:54:37;;;;;;;6.03;1.73;;;;;;;24.51;87.63;96428.31;5076995;28;20235;-71
2023/10/03 09:57:16;;;;;;;11.80;2.83;;;;;;;24.61;88.12;96426.50;5078283;28;20581;-70
2023/10/03 09:59:46;;;;;;;8.10;1.85;;;;;;;24.82;89.26;96413.97;5077480;28;20304;-71
2023/10/03 10:02:14;;;;;;;5.18;1.92;;;;;;;24.90;87.26;96421.56;5077597;28;20232;-70
2023/10/03 10:04:42;;;;;;;8.48;2.65;;;;;;;25.07;84.19;96427.63;5077671;28;20200;-71
2023/10/03 10:07:16;;;;;;;7.85;2.80;;;;;;;25.21;85.08;96418.78;5077158;28;20661;-71
2023/10/03 10:09:59;;;;;;;4.25;1.75;;;;;;;25.11;82.19;96424.13;5077921;28;20211;-71
2023/10/03 10:12:28;;;;;;;6.05;2.17;;;;;;;25.18;81.19;96419.31;5077473;28;20307;-71
2023/10/03 10:15:01;;;;;;;4.38;2.25;;;;;;;25.36;78.56;96418.84;5077766;28;20285;-70
2023/10/03 10:17:41;;;;;;;5.55;2.38;;;;;;;25.93;82.36;96425.78;5074871;28;20196;-71
2023/10/03 10:20:11;;;;;;;9.23;2.35;;;;;;;26.03;77.02;96432.03;5075742;28;20209;-71
2023/10/03 10:23:12;;;;;;;4.35;2.25;;;;;;;26.06;75.14;96423.38;5074029;28;20231;-72
2023/10/03 10:25:42;;;;;;;8.65;2.22;;;;;;;25.81;76.60;96425.22;5077208;28;20214;-72
2023/10/03 10:28:12;;;;;;;3.97;1.58;;;;;;;26.02;74.67;96419.59;5072270;28;20945;-73
2023/10/03 10:30:42;;;;;;;6.88;2.40;;;;;;;25.78;76.00;96414.16;5072214;28;20203;-71
2023/10/03 10:33:23;;;;;;;9.77;2.30;;;;;;;26.02;73.25;96419.59;5070054;28;20230;-71
2023/10/03 10:35:54;;;;;;;4.95;2.03;;;;;;;26.05;74.43;96426.34;5075883;28;20312;-70
2023/10/03 10:38:21;;;;;;;8.70;2.58;;;;;;;26.30;76.83;96415.53;5075723;28;20824;-71
2023/10/03 10:41:26;;;;;;;5.30;2.13;;;;;;;26.68;71.79;96418.50;5076656;28;20200;-73
2023/10/03 10:44:08;;;;;;;5.60;1.90;;;;;;;26.70;71.64;96419.06;5075661;28;20221;-71
2023/10/03 10:46:36;;;;;;;5.53;2.05;;;;;;;26.80;71.37;96408.25;5076454;28;20290;-72
2023/10/03 10:49:06;;;;;;;6.57;2.40;;;;;;;26.51;70.11;96423.41;5075173;28;20291;-71
2023/10/03 10:51:34;;;;;;;2.55;1.23;;;;;;;26.25;69.92;96413.66;5075567;28;20216;-71
2023/10/03 10:54:02;;;;;;;2.13;1.23;;;;;;;26.23;70.84;96415.81;5076510;28;20341;-72
2023/10/03 10:56:29;;;;;;;8.55;2.20;;;;;;;26.04;70.63;96420.13;5077654;28;20253;-71
2023/10/03 10:59:04;;;;;;;4.85;1.65;;;;;;;25.82;72.73;96413.34;5076462;28;20195;-71
2023/10/03 11:01:39;;;;;;;6.68;2.28;;;;;;;25.83;73.03;96407.66;5076518;28;20277;-71
2023/10/03 11:04:06;;;;;;;5.93;2.55;;;;;;;25.82;73.62;96396.34;5075597;28;20234;-72
2023/10/03 11:06:33;;;;;;;6.20;2.13;;;;;;;25.97;72.55;96400.66;5072459;28;20192;-71
2023/10/03 11:08:59;;;;;;;7.60;2.85;;;;;;;25.86;73.88;96396.34;5076576;28;20667;-72
2023/10/03 11:11:35;;;;;;;7.55;1.83;;;;;;;26.52;71.46;96398.81;5076728;28;20766;-71
2023/10/03 11:14:02;;;;;;;7.63;2.53;;;;;;;26.33;70.47;96391.50;5075155;28;20613;-71
2023/10/03 11:16:28;;;;;;;9.32;1.73;;;;;;;25.99;68.98;96382.31;5075112;28;20196;-70
2023/10/03 11:18:58;;;;;;;4.72;1.80;;;;;;;26.26;69.44;96376.63;5075493;28;20200;-71
2023/10/03 11:21:25;;;;;;;4.95;1.80;;;;;;;26.15;68.85;96370.44;5073674;28;20243;-71
2023/10/03 11:24:13;;;;;;;6.72;1.92;;;;;;;26.56;70.84;96366.63;5074847;28;20216;-71
2023/10/03 11:26:48;;;;;;;1.27;1.13;;;;;;;26.36;70.19;96357.75;5075956;28;20401;-71